Time;durP1;ratioP1;P1;durP2;ratioP2;P2;SDS_P1;SDS_P2;PMS_P1;PMS_P2;Temp;Humidity;BMP_temperature;BMP_pressure;BME280_temperature;BME280_humidity;BME280_pressure;Samples;Min_cycle;Max_cycle;Signal;HPM_P1;HPM_P2
2021/12/01 00:01:09;;;;;;;0.80;0.80;;;;;;;6.24;95.54;99597.34;5011094;28;20055;-53
2021/12/01 00:03:36;;;;;;;0.70;0.70;;;;;;;6.26;95.16;99606.00;5015967;28;20537;-52
2021/12/01 00:06:03;;;;;;;0.73;0.73;;;;;;;6.29;94.95;99584.84;5012331;28;20530;-52
2021/12/01 00:08:29;;;;;;;1.08;0.98;;;;;;;6.16;94.86;99562.59;5007376;28;20056;-53
2021/12/01 00:10:56;;;;;;;0.63;0.63;;;;;;;6.25;94.68;99583.28;5016234;28;20414;-52
2021/12/01 00:13:22;;;;;;;0.98;0.80;;;;;;;6.27;94.72;99579.66;5015602;28;20037;-53
2021/12/01 00:15:51;;;;;;;0.73;0.73;;;;;;;6.26;94.97;99577.94;5015091;28;20119;-52
2021/12/01 00:18:18;;;;;;;1.73;0.98;;;;;;;6.21;95.76;99584.31;5011386;28;20519;-53
2021/12/01 00:20:46;;;;;;;0.80;0.80;;;;;;;6.19;95.90;99575.63;5022703;28;20534;-52
2021/12/01 00:23:13;;;;;;;1.10;1.00;;;;;;;6.13;96.57;99575.91;5021518;28;20124;-53
2021/12/01 00:25:42;;;;;;;1.15;0.93;;;;;;;6.04;96.63;99544.72;5018604;28;20042;-53
2021/12/01 00:28:10;;;;;;;0.90;0.85;;;;;;;6.13;96.86;99561.00;5017660;28;20069;-51
2021/12/01 00:30:37;;;;;;;1.23;1.13;;;;;;;6.13;97.28;99573.28;5015259;28;20042;-52
2021/12/01 00:33:04;;;;;;;1.65;0.85;;;;;;;6.06;97.73;99554.25;5008281;28;20052;-53
2021/12/01 00:35:31;;;;;;;1.17;1.08;;;;;;;6.07;98.80;99548.09;5011479;28;20060;-52
2021/12/01 00:37:58;;;;;;;1.90;1.30;;;;;;;6.06;98.54;99548.16;5015773;28;20042;-53
2021/12/01 00:40:25;;;;;;;1.10;0.98;;;;;;;6.07;99.47;99549.88;5011834;28;20046;-53
2021/12/01 00:42:52;;;;;;;1.95;1.20;;;;;;;5.99;100.00;99561.53;5013671;28;20060;-52
2021/12/01 00:45:21;;;;;;;1.77;1.42;;;;;;;5.94;100.00;99574.03;5009741;28;20042;-53
2021/12/01 00:47:51;;;;;;;2.13;1.67;;;;;;;5.85;100.00;99548.09;5011128;28;20056;-52
2021/12/01 00:50:25;;;;;;;6.53;2.05;;;;;;;5.75;100.00;99548.53;5009946;28;20631;-53
2021/12/01 00:52:54;;;;;;;2.08;1.40;;;;;;;5.64;100.00;99548.97;5016404;28;20503;-53
2021/12/01 00:55:21;;;;;;;2.95;1.80;;;;;;;5.65;100.00;99555.94;5018016;28;20096;-53
2021/12/01 00:57:50;;;;;;;3.60;1.80;;;;;;;5.58;100.00;99550.06;5014761;28;20049;-52
2021/12/01 01:00:18;;;;;;;2.75;2.08;;;;;;;5.49;100.00;99547.81;5011590;28;20049;-57
2021/12/01 01:02:45;;;;;;;2.88;2.58;;;;;;;5.52;100.00;99542.44;5013617;28;20136;-51
2021/12/01 01:05:12;;;;;;;6.35;3.03;;;;;;;5.44;100.00;99541.03;5008698;28;20041;-54
2021/12/01 01:07:39;;;;;;;3.78;2.45;;;;;;;5.36;100.00;99538.69;5013102;28;20049;-51
2021/12/01 01:18:34;;;;;;;3.38;2.47;;;;;;;5.29;100.00;99501.34;5008808;28;20138;-52
2021/12/01 01:21:02;;;;;;;3.00;2.53;;;;;;;5.29;100.00;99511.00;5012972;28;20160;-52
2021/12/01 01:23:29;;;;;;;3.95;2.58;;;;;;;5.23;100.00;99506.81;5020693;28;20470;-52
2021/12/01 01:25:57;;;;;;;3.25;2.53;;;;;;;5.23;100.00;99504.19;5019226;28;20071;-53
2021/12/01 01:28:24;;;;;;;3.17;2.38;;;;;;;5.33;100.00;99496.84;5014344;28;20061;-54
2021/12/01 01:30:52;;;;;;;4.45;2.55;;;;;;;5.31;100.00;99501.28;5020431;28;20041;-57
2021/12/01 01:33:20;;;;;;;3.10;2.40;;;;;;;5.32;100.00;99495.13;5021094;28;20049;-52
2021/12/01 01:35:47;;;;;;;2.55;2.28;;;;;;;5.31;100.00;99497.81;5013035;28;20052;-53
2021/12/01 01:38:14;;;;;;;2.80;2.20;;;;;;;5.31;100.00;99493.41;5008023;28;20046;-52
2021/12/01 01:40:41;;;;;;;2.90;2.10;;;;;;;5.25;100.00;99499.75;5009969;28;20042;-53
2021/12/01 01:43:08;;;;;;;2.58;2.03;;;;;;;5.27;100.00;99490.06;5010805;28;20049;-53
2021/12/01 01:45:35;;;;;;;3.38;2.00;;;;;;;5.29;100.00;99490.84;5006611;28;20060;-52
2021/12/01 01:48:06;;;;;;;2.33;1.80;;;;;;;5.37;100.00;99492.28;5009668;28;20053;-53
2021/12/01 01:50:38;;;;;;;2.95;1.92;;;;;;;5.36;100.00;99482.72;5008249;28;20041;-50
2021/12/01 01:53:04;;;;;;;3.30;1.70;;;;;;;5.31;100.00;99471.56;5013470;28;20056;-55
2021/12/01 01:55:31;;;;;;;2.72;1.73;;;;;;;5.26;100.00;99474.34;5013158;28;20052;-54
2021/12/01 01:57:58;;;;;;;2.08;1.60;;;;;;;5.33;100.00;99473.22;5016176;28;20049;-54
2021/12/01 02:00:26;;;;;;;1.80;1.30;;;;;;;5.36;100.00;99459.94;5006319;28;20050;-51
2021/12/01 02:02:54;;;;;;;2.10;1.60;;;;;;;5.31;100.00;99456.66;5012853;28;20137;-52
2021/12/01 02:05:22;;;;;;;1.40;1.30;;;;;;;5.26;100.00;99459.47;5014998;28;20048;-54
2021/12/01 02:07:50;;;;;;;2.45;1.50;;;;;;;5.29;100.00;99454.09;5012866;28;20752;-53
2021/12/01 02:10:17;;;;;;;1.02;0.90;;;;;;;5.32;100.00;99439.16;5009658;28;20053;-52
2021/12/01 02:12:44;;;;;;;1.30;1.20;;;;;;;5.29;100.00;99440.13;5014004;28;20057;-53
2021/12/01 02:15:10;;;;;;;2.58;1.10;;;;;;;5.28;100.00;99426.13;5011265;28;20058;-53
2021/12/01 02:17:37;;;;;;;1.92;0.93;;;;;;;5.29;100.00;99427.84;5010680;28;20049;-53
2021/12/01 02:20:11;;;;;;;0.95;0.95;;;;;;;5.27;100.00;99415.69;5011261;28;20045;-53
2021/12/01 02:22:38;;;;;;;1.67;1.00;;;;;;;5.24;100.00;99415.81;5013996;28;20048;-51
2021/12/01 02:25:04;;;;;;;1.13;1.02;;;;;;;5.16;100.00;99403.03;5009757;28;20049;-51
2021/12/01 02:27:31;;;;;;;1.10;1.00;;;;;;;5.19;100.00;99402.91;5013418;28;20061;-54
2021/12/01 02:29:57;;;;;;;2.15;1.00;;;;;;;5.21;100.00;99392.31;5008409;28;20495;-53
2021/12/01 02:32:24;;;;;;;0.80;0.80;;;;;;;5.26;100.00;99390.38;5016199;28;20049;-51
2021/12/01 02:34:50;;;;;;;0.70;0.70;;;;;;;5.21;100.00;99387.06;5017361;28;20048;-52
2021/12/01 02:37:19;;;;;;;2.70;0.70;;;;;;;5.16;100.00;99387.28;5016927;28;20132;-51
2021/12/01 02:39:49;;;;;;;2.90;0.73;;;;;;;5.28;100.00;99397.28;5003554;28;20075;-53
2021/12/01 02:42:18;;;;;;;;;;;;;;;5.24;100.00;99392.19;5006513;28;20049;-53
2021/12/01 02:44:45;;;;;;;0.82;0.52;;;;;;;5.19;100.00;99378.44;5010359;28;20007;-52
2021/12/01 02:47:12;;;;;;;0.77;0.60;;;;;;;5.10;100.00;99353.41;5010719;28;20049;-52
2021/12/01 02:49:39;;;;;;;0.82;0.60;;;;;;;5.23;100.00;99370.34;5008029;28;20143;-53
2021/12/01 02:52:06;;;;;;;0.77;0.73;;;;;;;5.28;100.00;99364.91;5008150;28;20061;-53
2021/12/01 02:54:33;;;;;;;1.15;0.73;;;;;;;5.24;100.00;99356.31;5017271;28;20048;-52
2021/12/01 02:57:00;;;;;;;2.05;0.88;;;;;;;5.23;100.00;99359.84;5018762;28;20046;-51
2021/12/01 02:59:26;;;;;;;1.02;0.65;;;;;;;5.34;100.00;99353.31;5008681;28;20060;-52
2021/12/01 03:01:54;;;;;;;0.80;0.77;;;;;;;5.39;100.00;99353.94;5011816;28;20383;-53
2021/12/01 03:04:22;;;;;;;0.90;0.80;;;;;;;5.33;100.00;99355.09;5005381;28;20049;-52
2021/12/01 03:06:50;;;;;;;0.93;0.80;;;;;;;5.20;100.00;99344.22;5013931;28;20048;-53
2021/12/01 03:09:16;;;;;;;1.70;0.77;;;;;;;5.14;100.00;99327.91;5007581;28;20069;-53
2021/12/01 03:11:43;;;;;;;1.17;1.05;;;;;;;5.18;100.00;99330.34;5008297;28;22048;-53
2021/12/01 03:14:14;;;;;;;0.77;0.73;;;;;;;5.15;100.00;99329.59;5013959;28;20049;-52
2021/12/01 03:16:40;;;;;;;;;;;;;;;5.18;100.00;99330.34;5007660;28;20052;-53
2021/12/01 03:19:08;;;;;;;0.80;0.70;;;;;;;5.24;100.00;99319.56;5006549;28;20008;-53
2021/12/01 03:21:38;;;;;;;1.42;0.75;;;;;;;5.26;100.00;99307.22;5007409;28;20495;-56
2021/12/01 03:24:06;;;;;;;1.55;0.95;;;;;;;5.36;100.00;99322.56;5011227;28;20045;-53
2021/12/01 03:26:33;;;;;;;1.17;1.00;;;;;;;5.44;100.00;99299.50;5012801;28;20786;-51
2021/12/01 03:29:01;;;;;;;0.90;0.80;;;;;;;5.43;100.00;99295.16;5009534;28;20068;-52
2021/12/01 03:31:28;;;;;;;2.25;1.40;;;;;;;5.39;100.00;99288.31;5003797;28;21705;-53
2021/12/01 03:33:54;;;;;;;1.60;1.20;;;;;;;5.42;100.00;99290.81;5008468;28;20050;-53
2021/12/01 03:36:21;;;;;;;1.75;1.10;;;;;;;5.46;100.00;99276.66;5006936;28;20038;-54
2021/12/01 03:38:48;;;;;;;1.60;1.33;;;;;;;5.57;99.34;99284.91;5008902;28;20080;-52
2021/12/01 03:41:15;;;;;;;2.58;1.38;;;;;;;5.59;98.71;99277.81;5008661;28;20065;-52
2021/12/01 03:43:41;;;;;;;2.65;1.40;;;;;;;5.62;98.55;99277.69;5014910;28;20588;-52
2021/12/01 03:46:08;;;;;;;2.40;1.45;;;;;;;5.66;97.92;99253.00;5010998;28;20053;-52
2021/12/01 03:48:35;;;;;;;4.88;1.60;;;;;;;5.66;97.91;99278.41;5006045;28;20803;-51
2021/12/01 03:51:01;;;;;;;2.60;1.52;;;;;;;5.60;98.55;99275.13;5003791;28;20060;-53
2021/12/01 03:53:28;;;;;;;3.63;1.88;;;;;;;5.66;98.41;99270.53;5012390;28;20045;-52
2021/12/01 03:55:54;;;;;;;2.53;1.55;;;;;;;5.70;98.16;99264.19;5011817;28;20049;-52
2021/12/01 03:58:21;;;;;;;3.17;1.90;;;;;;;5.70;98.26;99265.03;5007680;28;20041;-53
2021/12/01 04:00:48;;;;;;;3.42;1.75;;;;;;;5.69;98.78;99249.34;5008376;28;20050;-53
2021/12/01 04:03:14;;;;;;;3.15;2.45;;;;;;;5.61;98.83;99242.69;5006625;28;20066;-53
2021/12/01 04:05:42;;;;;;;2.85;2.40;;;;;;;5.62;99.09;99236.50;5010995;28;20402;-53
2021/12/01 04:08:09;;;;;;;4.07;3.00;;;;;;;5.55;99.88;99226.34;5010135;28;20052;-53
2021/12/01 04:10:35;;;;;;;3.72;3.33;;;;;;;5.49;100.00;99224.00;5002747;28;20056;-53
2021/12/01 04:13:03;;;;;;;4.43;3.58;;;;;;;5.45;100.00;99212.78;5009790;28;20052;-53
2021/12/01 04:15:29;;;;;;;6.90;3.70;;;;;;;5.43;100.00;99196.25;5009338;28;20046;-53
2021/12/01 04:17:56;;;;;;;4.25;3.65;;;;;;;5.40;100.00;99193.75;5012584;28;20052;-53
2021/12/01 04:20:22;;;;;;;5.72;4.00;;;;;;;5.41;100.00;99184.09;5007921;28;20042;-52
2021/12/01 04:22:50;;;;;;;4.72;3.80;;;;;;;5.38;100.00;99182.47;5009149;28;20132;-52
2021/12/01 04:25:17;;;;;;;5.47;3.78;;;;;;;5.38;100.00;99173.72;5007310;28;20077;-52
2021/12/01 04:27:44;;;;;;;5.03;4.10;;;;;;;5.42;100.00;99172.69;5011242;28;20060;-52
2021/12/01 04:30:13;;;;;;;5.43;3.88;;;;;;;5.26;100.00;99152.38;5008810;28;20124;-53
2021/12/01 04:32:40;;;;;;;5.88;4.18;;;;;;;5.38;100.00;99179.84;5014387;28;20045;-52
2021/12/01 04:35:08;;;;;;;5.90;3.95;;;;;;;5.33;100.00;99147.72;5009219;28;20076;-52
2021/12/01 04:37:35;;;;;;;4.38;3.92;;;;;;;5.48;100.00;99148.78;5008559;28;20046;-53
2021/12/01 04:40:05;;;;;;;6.93;4.00;;;;;;;5.51;100.00;99146.03;5000493;28;20100;-52
2021/12/01 04:42:32;;;;;;;4.50;3.78;;;;;;;5.51;100.00;99156.53;5006777;28;20051;-54
2021/12/01 04:44:59;;;;;;;4.80;3.50;;;;;;;5.49;100.00;99132.97;5009664;28;20061;-51
2021/12/01 04:47:29;;;;;;;5.75;3.70;;;;;;;5.53;100.00;99126.63;5010564;28;20064;-52
2021/12/01 04:49:56;;;;;;;4.47;3.20;;;;;;;5.58;99.06;99111.50;5005131;28;20053;-52
2021/12/01 04:52:23;;;;;;;4.68;3.25;;;;;;;5.69;98.21;99105.75;5009462;28;20052;-52
2021/12/01 04:54:50;;;;;;;5.57;2.70;;;;;;;5.73;97.81;99107.31;5010832;28;20799;-53
2021/12/01 04:57:16;;;;;;;3.22;2.55;;;;;;;5.79;97.63;99106.16;5010393;28;20399;-53
2021/12/01 04:59:44;;;;;;;2.50;2.30;;;;;;;5.88;95.68;99101.34;5005137;28;20041;-52
2021/12/01 05:02:10;;;;;;;3.92;2.30;;;;;;;5.92;95.02;99083.66;5007994;28;20060;-52
2021/12/01 05:04:38;;;;;;;2.95;2.20;;;;;;;5.96;94.61;99093.09;5015460;28;20426;-54
2021/12/01 05:07:04;;;;;;;2.88;2.10;;;;;;;5.99;94.30;99092.94;5015826;28;20041;-52
2021/12/01 05:09:31;;;;;;;4.18;2.45;;;;;;;5.96;94.87;99093.09;5010107;28;20463;-55
2021/12/01 05:11:58;;;;;;;3.08;2.15;;;;;;;6.08;94.21;99078.50;5008096;28;20160;-53
2021/12/01 05:14:25;;;;;;;4.10;2.38;;;;;;;6.04;93.84;99071.69;5013322;28;20156;-52
2021/12/01 05:16:52;;;;;;;3.42;2.10;;;;;;;6.09;93.76;99082.84;5008541;28;20132;-52
2021/12/01 05:19:19;;;;;;;2.90;2.25;;;;;;;6.03;93.61;99072.63;5014423;28;20049;-52
2021/12/01 05:21:45;;;;;;;3.45;2.05;;;;;;;6.13;93.14;99082.63;5015213;28;20416;-54
2021/12/01 05:24:12;;;;;;;2.30;2.00;;;;;;;6.13;93.55;99090.50;5015048;28;20046;-53
2021/12/01 05:26:39;;;;;;;3.20;1.88;;;;;;;6.14;93.43;99071.16;5013451;28;20060;-54
2021/12/01 05:29:05;;;;;;;2.85;2.40;;;;;;;6.14;93.52;99076.41;5009820;28;20037;-53
2021/12/01 05:31:32;;;;;;;5.03;2.45;;;;;;;6.17;93.40;99084.16;5009161;28;20072;-53
2021/12/01 05:33:59;;;;;;;3.85;2.17;;;;;;;6.13;93.80;99072.09;5013983;28;20114;-52
2021/12/01 05:36:26;;;;;;;3.30;2.15;;;;;;;6.11;94.54;99070.47;5007535;28;20045;-52
2021/12/01 05:38:52;;;;;;;4.13;2.10;;;;;;;6.09;93.98;99067.06;5016278;28;20053;-59
2021/12/01 05:41:19;;;;;;;2.58;2.03;;;;;;;6.06;94.20;99057.56;5008059;28;20049;-54
2021/12/01 05:43:47;;;;;;;3.83;1.85;;;;;;;6.07;93.80;99068.91;5016414;28;20045;-53
2021/12/01 05:46:13;;;;;;;4.88;2.17;;;;;;;6.09;94.01;99056.56;5014937;28;20524;-54
2021/12/01 05:48:40;;;;;;;3.08;2.08;;;;;;;6.08;93.65;99047.81;5010767;28;20064;-53
2021/12/01 05:51:07;;;;;;;3.55;2.10;;;;;;;6.10;93.77;99043.34;5008675;28;20061;-53
2021/12/01 05:53:34;;;;;;;4.07;1.90;;;;;;;6.08;93.53;99046.97;5014451;28;20046;-58
2021/12/01 05:56:01;;;;;;;3.75;2.10;;;;;;;6.06;94.07;99038.31;5017038;28;20049;-51
2021/12/01 05:58:27;;;;;;;3.40;2.35;;;;;;;6.01;94.42;99040.31;5013369;28;20052;-56
2021/12/01 06:00:54;;;;;;;3.40;2.40;;;;;;;6.00;94.68;99034.19;5007944;28;20056;-53
2021/12/01 06:03:21;;;;;;;4.07;2.60;;;;;;;5.96;95.07;99036.16;5016231;28;20049;-52
2021/12/01 06:05:47;;;;;;;8.38;2.70;;;;;;;5.95;95.54;99031.81;5014125;28;20046;-52
2021/12/01 06:08:14;;;;;;;4.22;2.55;;;;;;;5.94;95.00;99021.38;5012456;28;20053;-53
2021/12/01 06:10:41;;;;;;;4.47;2.63;;;;;;;5.95;95.34;99020.47;5006122;28;20084;-52
2021/12/01 06:13:08;;;;;;;2.88;2.40;;;;;;;5.95;95.52;99018.69;5005313;28;20139;-52
2021/12/01 06:15:34;;;;;;;4.80;2.75;;;;;;;5.97;94.83;99010.72;5009843;28;20068;-52
2021/12/01 06:18:02;;;;;;;4.65;2.80;;;;;;;5.97;94.62;99008.97;5015271;28;20060;-52
2021/12/01 06:20:28;;;;;;;4.80;2.50;;;;;;;6.07;94.20;99008.47;5009123;28;20053;-53
2021/12/01 06:22:55;;;;;;;4.85;2.70;;;;;;;6.16;93.20;99000.13;5007957;28;20053;-53
2021/12/01 06:25:21;;;;;;;3.10;2.38;;;;;;;6.13;93.57;98985.38;5010909;28;21112;-53
2021/12/01 06:27:53;;;;;;;4.10;2.75;;;;;;;6.11;93.48;98981.97;5010363;28;20038;-52
2021/12/01 06:30:21;;;;;;;3.88;2.80;;;;;;;6.15;93.87;98982.63;5010461;28;20053;-53
2021/12/01 06:32:48;;;;;;;4.90;2.90;;;;;;;6.09;93.98;98980.34;5015692;28;20045;-52
2021/12/01 06:35:15;;;;;;;4.55;2.90;;;;;;;6.12;93.29;98965.28;5013574;28;20073;-52
2021/12/01 06:37:42;;;;;;;4.07;3.17;;;;;;;6.18;93.00;98964.94;5012161;28;20052;-53
2021/12/01 06:40:10;;;;;;;4.38;3.08;;;;;;;6.17;92.72;98970.28;5011937;28;20054;-52
2021/12/01 06:42:36;;;;;;;4.60;2.70;;;;;;;6.23;91.83;98957.69;5015300;28;20136;-52
2021/12/01 06:45:05;;;;;;;4.72;2.75;;;;;;;6.22;92.01;98947.25;5008512;28;20050;-52
2021/12/01 06:47:31;;;;;;;3.80;2.90;;;;;;;6.23;92.27;98948.94;5004358;28;20226;-53
2021/12/01 06:49:59;;;;;;;4.45;2.60;;;;;;;6.13;92.28;98918.81;5002679;28;20102;-53
2021/12/01 06:52:29;;;;;;;3.90;2.63;;;;;;;6.22;91.48;98936.72;4997093;28;20060;-51
2021/12/01 06:54:57;;;;;;;6.47;2.90;;;;;;;6.23;91.53;98934.03;5006158;28;20045;-53
2021/12/01 06:57:24;;;;;;;3.15;2.50;;;;;;;6.33;90.88;98927.34;5004807;28;20042;-52
2021/12/01 06:59:51;;;;;;;7.70;2.70;;;;;;;6.40;90.34;98919.13;5000924;28;20064;-52
2021/12/01 07:02:18;;;;;;;3.70;2.80;;;;;;;6.36;90.42;98917.59;5000403;28;20049;-52
2021/12/01 07:04:45;;;;;;;6.10;2.92;;;;;;;6.39;90.10;98910.41;5004761;28;20049;-53
2021/12/01 07:07:12;;;;;;;2.90;2.40;;;;;;;6.38;89.89;98913.09;5000825;28;22328;-52
2021/12/01 07:09:40;;;;;;;3.92;2.85;;;;;;;6.37;90.02;98903.50;4999446;28;20052;-54
2021/12/01 07:12:07;;;;;;;4.68;2.58;;;;;;;6.40;89.71;98898.09;5001777;28;20396;-55
2021/12/01 07:14:33;;;;;;;3.33;2.28;;;;;;;6.42;89.27;98893.63;5004057;28;20072;-52
2021/12/01 07:17:00;;;;;;;4.68;2.63;;;;;;;6.45;89.31;98886.41;5006558;28;20381;-51
2021/12/01 07:19:27;;;;;;;4.32;2.58;;;;;;;6.47;89.02;98889.78;5000525;28;20822;-53
2021/12/01 07:21:53;;;;;;;3.28;2.22;;;;;;;6.48;88.78;98883.59;5006412;28;20053;-53
2021/12/01 07:24:20;;;;;;;3.03;2.30;;;;;;;6.47;89.23;98876.63;5009395;28;20068;-53
2021/12/01 07:26:47;;;;;;;3.38;2.10;;;;;;;6.50;88.38;98879.09;5004823;28;20049;-56
2021/12/01 07:29:13;;;;;;;5.07;2.72;;;;;;;6.49;88.76;98877.41;5007583;28;20080;-52
2021/12/01 07:31:40;;;;;;;5.07;2.20;;;;;;;6.58;88.10;98874.28;5005968;28;20059;-53
2021/12/01 07:34:06;;;;;;;5.07;2.13;;;;;;;6.51;88.63;98870.28;5009350;28;20046;-52
2021/12/01 07:36:33;;;;;;;4.85;2.50;;;;;;;6.53;88.43;98855.28;5005139;28;20041;-54
2021/12/01 07:39:00;;;;;;;6.35;2.13;;;;;;;6.53;88.22;98850.00;5011476;28;20045;-54
2021/12/01 07:41:26;;;;;;;3.40;1.98;;;;;;;6.61;87.89;98845.16;5001077;28;20045;-54
2021/12/01 07:43:53;;;;;;;4.43;2.00;;;;;;;6.61;87.77;98863.56;5009301;28;20527;-53
2021/12/01 07:46:20;;;;;;;3.42;1.80;;;;;;;6.50;87.85;98839.66;5002022;28;20041;-53
2021/12/01 07:48:47;;;;;;;3.22;2.28;;;;;;;6.62;87.64;98851.28;5013986;28;22019;-53
2021/12/01 07:51:14;;;;;;;3.95;2.00;;;;;;;6.61;87.99;98849.59;5007653;28;20052;-53
2021/12/01 07:53:41;;;;;;;3.17;1.55;;;;;;;6.70;87.31;98849.09;5014556;28;20411;-54
2021/12/01 07:56:08;;;;;;;1.85;1.63;;;;;;;6.65;87.66;98846.69;5006491;28;20084;-53
2021/12/01 07:58:35;;;;;;;2.70;1.52;;;;;;;6.68;87.76;98841.28;5021388;28;20052;-58
2021/12/01 08:01:01;;;;;;;1.90;1.45;;;;;;;6.78;86.70;98827.59;5008246;28;20049;-53
2021/12/01 08:03:28;;;;;;;3.70;1.70;;;;;;;6.75;87.05;98833.06;5011436;28;20049;-53
2021/12/01 08:05:55;;;;;;;3.25;1.40;;;;;;;6.79;86.58;98821.41;5012358;28;20044;-53
2021/12/01 08:08:21;;;;;;;3.75;1.30;;;;;;;6.81;86.60;98820.38;5004345;28;20042;-52
2021/12/01 08:10:48;;;;;;;1.73;1.50;;;;;;;6.80;86.71;98795.00;5009411;28;20055;-52
2021/12/01 08:13:14;;;;;;;1.98;1.35;;;;;;;6.80;87.20;98788.91;5012557;28;20068;-53
2021/12/01 08:15:47;;;;;;;1.95;1.17;;;;;;;6.78;87.32;98793.38;5008621;28;20049;-53
2021/12/01 08:18:15;;;;;;;2.13;1.48;;;;;;;6.80;87.61;98778.38;5006590;28;20042;-52
2021/12/01 08:20:42;;;;;;;3.00;1.67;;;;;;;6.90;86.57;98756.72;4999498;28;20050;-54
2021/12/01 08:23:08;;;;;;;4.22;1.73;;;;;;;6.81;87.72;98745.88;5008376;28;20054;-55
2021/12/01 08:25:35;;;;;;;1.30;1.10;;;;;;;6.76;87.60;98742.69;5014450;28;20083;-52
2021/12/01 08:28:02;;;;;;;5.00;1.58;;;;;;;6.76;88.02;98747.94;5004334;28;20049;-53
2021/12/01 08:30:31;;;;;;;2.45;1.60;;;;;;;6.69;88.10;98742.16;5001583;28;20045;-55
2021/12/01 08:32:59;;;;;;;2.28;1.17;;;;;;;6.84;88.04;98753.59;5002091;28;20053;-53
2021/12/01 08:35:25;;;;;;;1.25;1.13;;;;;;;6.88;87.88;98741.97;5002558;28;20049;-52
2021/12/01 08:37:52;;;;;;;2.50;1.00;;;;;;;6.95;87.84;98735.38;5009437;28;20121;-52
2021/12/01 08:40:19;;;;;;;1.20;1.10;;;;;;;6.92;88.08;98738.22;5005923;28;20050;-53
2021/12/01 08:42:46;;;;;;;2.28;1.00;;;;;;;6.92;88.03;98732.97;5014213;28;20503;-53
2021/12/01 08:45:13;;;;;;;2.35;1.05;;;;;;;6.88;88.25;98737.53;5013068;28;20037;-52
2021/12/01 08:47:40;;;;;;;0.82;0.77;;;;;;;6.85;88.57;98727.19;5017898;28;20041;-58
2021/12/01 08:50:09;;;;;;;1.20;0.90;;;;;;;6.85;88.82;98735.09;5013259;28;20052;-55
2021/12/01 08:52:37;;;;;;;2.00;0.80;;;;;;;6.89;89.34;98738.41;5012271;28;20565;-53
2021/12/01 08:55:05;;;;;;;1.67;1.10;;;;;;;6.86;89.58;98721.00;5016743;28;20519;-53
2021/12/01 08:57:31;;;;;;;1.10;0.70;;;;;;;6.84;90.16;98716.75;5012896;28;20038;-53
2021/12/01 08:59:58;;;;;;;2.70;1.00;;;;;;;6.80;90.58;98712.59;5004008;28;20148;-53
2021/12/01 09:02:24;;;;;;;3.70;0.85;;;;;;;6.81;90.47;98693.25;4999436;28;21191;-53
2021/12/01 09:04:51;;;;;;;2.03;1.10;;;;;;;6.80;90.87;98707.34;5011691;28;20403;-53
2021/12/01 09:07:19;;;;;;;1.38;1.02;;;;;;;6.83;90.94;98683.50;5005881;28;20486;-54
2021/12/01 09:09:46;;;;;;;2.55;1.10;;;;;;;6.82;91.33;98700.22;5004218;28;20406;-53
2021/12/01 09:12:18;;;;;;;1.10;0.70;;;;;;;6.83;91.27;98686.13;5000224;28;20068;-54
2021/12/01 09:14:45;;;;;;;1.58;0.90;;;;;;;6.79;91.32;98674.06;5001851;28;20060;-52
2021/12/01 09:17:12;;;;;;;1.75;1.20;;;;;;;6.76;92.21;98669.03;5009350;28;20053;-54
2021/12/01 09:19:40;;;;;;;2.47;1.20;;;;;;;6.81;92.20;98672.19;5013868;28;20059;-52
2021/12/01 09:22:06;;;;;;;1.38;0.93;;;;;;;6.75;92.60;98665.53;4999381;28;20060;-54
2021/12/01 09:24:33;;;;;;;1.83;1.20;;;;;;;6.61;92.95;98654.97;5008080;28;20053;-52
2021/12/01 09:27:00;;;;;;;1.23;1.00;;;;;;;6.75;93.54;98664.69;5007709;28;20057;-53
2021/12/01 09:29:27;;;;;;;1.98;0.93;;;;;;;6.74;93.60;98655.09;5009346;28;20055;-53
2021/12/01 09:31:56;;;;;;;1.60;1.08;;;;;;;6.79;93.17;98647.75;5007710;28;20057;-52
2021/12/01 09:34:23;;;;;;;2.03;1.80;;;;;;;6.74;93.14;98639.31;5007221;28;20049;-53
2021/12/01 09:36:49;;;;;;;3.10;1.40;;;;;;;6.86;93.03;98646.47;5010942;28;20068;-53
2021/12/01 09:39:16;;;;;;;2.00;1.10;;;;;;;6.89;92.96;98639.25;5007269;28;20053;-51
2021/12/01 09:41:44;;;;;;;2.38;1.33;;;;;;;6.96;92.63;98632.66;4999128;28;20131;-52
2021/12/01 09:44:10;;;;;;;2.60;1.10;;;;;;;6.85;92.72;98618.47;5003392;28;20045;-52
2021/12/01 09:46:37;;;;;;;2.65;1.30;;;;;;;6.98;92.76;98630.78;5015403;28;20213;-53
2021/12/01 09:49:04;;;;;;;1.23;0.90;;;;;;;7.06;92.18;98629.50;5017239;28;20045;-52
2021/12/01 09:51:30;;;;;;;2.22;1.10;;;;;;;7.06;92.25;98629.50;5005527;28;20056;-52
2021/12/01 09:53:57;;;;;;;2.38;0.80;;;;;;;7.05;92.22;98615.50;5014741;28;20131;-52
2021/12/01 09:56:25;;;;;;;3.30;1.23;;;;;;;6.99;91.98;98595.66;5008973;28;20041;-53
2021/12/01 09:58:51;;;;;;;1.45;1.02;;;;;;;7.11;91.92;98620.38;5012971;28;20438;-52
2021/12/01 10:01:20;;;;;;;1.88;0.90;;;;;;;7.13;92.23;98615.00;5011035;28;20076;-53
2021/12/01 10:03:47;;;;;;;1.23;0.90;;;;;;;7.19;91.81;98619.91;5005613;28;20050;-52
2021/12/01 10:06:18;;;;;;;2.03;0.75;;;;;;;7.15;91.58;98597.34;5005395;28;20141;-53
2021/12/01 10:08:50;;;;;;;1.17;0.88;;;;;;;7.13;91.93;98605.31;5001766;28;20057;-52
2021/12/01 10:11:21;;;;;;;1.88;1.10;;;;;;;7.12;92.21;98592.25;5004120;28;20060;-57
2021/12/01 10:13:53;;;;;;;1.30;1.10;;;;;;;7.11;92.62;98585.31;5006589;28;20053;-52
2021/12/01 10:16:19;;;;;;;3.08;1.40;;;;;;;7.12;92.53;98581.72;5006273;28;20159;-53
2021/12/01 10:18:47;;;;;;;2.28;1.02;;;;;;;7.10;92.65;98578.34;5008216;28;20045;-54
2021/12/01 10:21:30;;;;;;;1.80;1.20;;;;;;;7.13;92.59;98572.91;5004045;28;20042;-56
2021/12/01 10:24:00;;;;;;;1.20;0.65;;;;;;;7.13;92.78;98559.72;5004053;28;20042;-57
2021/12/01 10:26:29;;;;;;;0.90;0.70;;;;;;;7.12;92.94;98555.41;5005387;28;20053;-54
2021/12/01 10:28:59;;;;;;;1.42;0.85;;;;;;;7.23;92.14;98543.28;5005292;28;20679;-53
2021/12/01 10:31:44;;;;;;;2.42;0.88;;;;;;;7.25;92.25;98546.66;5003161;28;20064;-53
2021/12/01 10:34:18;;;;;;;2.30;1.00;;;;;;;7.26;92.14;98536.97;5009125;28;20065;-53
2021/12/01 10:36:47;;;;;;;0.93;0.63;;;;;;;7.25;92.04;98538.75;5018586;28;20049;-54
2021/12/01 10:39:14;;;;;;;0.73;0.70;;;;;;;7.24;92.21;98539.69;5012693;28;20127;-53
2021/12/01 10:41:43;;;;;;;1.25;0.65;;;;;;;7.25;92.29;98537.91;5015787;28;20046;-53
2021/12/01 10:44:15;;;;;;;2.05;0.90;;;;;;;7.21;92.52;98539.91;5009755;28;20068;-53
2021/12/01 10:46:48;;;;;;;1.83;0.95;;;;;;;7.20;92.93;98534.72;5011906;28;20041;-53
2021/12/01 10:49:16;;;;;;;0.75;0.60;;;;;;;7.23;93.21;98530.13;5012138;28;20057;-54
2021/12/01 10:51:44;;;;;;;1.52;0.60;;;;;;;7.14;93.61;98519.31;5012269;28;20045;-54
2021/12/01 10:54:18;;;;;;;0.98;0.75;;;;;;;7.14;94.08;98528.06;5012635;28;20491;-53
2021/12/01 10:56:46;;;;;;;1.45;0.82;;;;;;;7.15;94.13;98513.97;5017827;28;20049;-52
2021/12/01 10:59:16;;;;;;;2.55;0.93;;;;;;;7.18;94.09;98505.88;5010579;28;20521;-53
2021/12/01 11:01:44;;;;;;;2.35;0.70;;;;;;;7.25;93.67;98494.00;5009572;28;20057;-53
2021/12/01 11:04:11;;;;;;;0.82;0.70;;;;;;;7.23;93.99;98490.63;5013193;28;20121;-55
2021/12/01 11:06:40;;;;;;;1.77;0.90;;;;;;;7.20;93.94;98489.97;5013710;28;20052;-54
2021/12/01 11:09:07;;;;;;;1.02;0.82;;;;;;;7.25;93.98;98478.19;5010790;28;20060;-52
2021/12/01 11:11:38;;;;;;;3.13;0.70;;;;;;;7.26;93.58;98468.50;5005165;28;20048;-53
2021/12/01 11:14:24;;;;;;;;;;;;;;;7.34;93.43;98471.50;5004186;28;20048;-51
2021/12/01 11:16:51;;;;;;;1.25;0.70;;;;;;;7.39;93.14;98456.28;5014026;28;19929;-53
2021/12/01 11:19:31;;;;;;;0.95;0.70;;;;;;;7.50;92.29;98445.88;5010559;28;20140;-53
2021/12/01 11:22:34;;;;;;;1.20;0.60;;;;;;;7.55;92.20;98451.69;5009738;28;20053;-56
2021/12/01 11:25:22;;;;;;;1.38;0.75;;;;;;;7.57;92.16;98433.97;5008292;28;20558;-54
2021/12/01 11:27:49;;;;;;;3.90;1.05;;;;;;;7.61;91.81;98422.31;5003275;28;20550;-53
2021/12/01 11:30:16;;;;;;;0.90;0.75;;;;;;;7.50;92.06;98410.81;5003169;28;20108;-53
2021/12/01 11:32:53;;;;;;;0.90;0.73;;;;;;;7.61;91.93;98418.81;4998064;28;20054;-52
2021/12/01 11:35:20;;;;;;;2.35;0.70;;;;;;;7.73;91.33;98421.47;5004872;28;20107;-53
2021/12/01 11:37:54;;;;;;;0.80;0.60;;;;;;;7.84;90.08;98412.03;5004153;28;20071;-53
2021/12/01 11:40:29;;;;;;;1.00;0.60;;;;;;;7.94;89.64;98392.84;5006935;28;20653;-54
2021/12/01 11:42:57;;;;;;;0.68;0.32;;;;;;;8.06;88.57;98386.75;5003421;28;22143;-53
2021/12/01 11:45:24;;;;;;;0.40;0.30;;;;;;;8.14;87.80;98380.09;5007531;28;20090;-53
2021/12/01 11:47:53;;;;;;;1.35;0.57;;;;;;;8.21;87.61;98381.34;5017385;28;20048;-51
2021/12/01 11:50:32;;;;;;;0.85;0.35;;;;;;;8.25;86.81;98365.22;5013654;28;20041;-53